createdAt,value
2019-01-30T00:01:24.570Z,93097.98
2019-01-30T00:04:32.250Z,93094.05
2019-01-30T00:07:39.682Z,93089.52
2019-01-30T00:10:47.528Z,93096.52
2019-01-30T00:13:55.656Z,93087.13
2019-01-30T00:17:03.638Z,93084.25
2019-01-30T00:20:11.399Z,93085.41
2019-01-30T00:23:18.791Z,93076.72
2019-01-30T00:26:26.286Z,93065.84
2019-01-30T00:29:34.062Z,93063.40
2019-01-30T00:32:41.498Z,93050.84
2019-01-30T00:35:49.790Z,93049.73
2019-01-30T00:38:57.182Z,93044.91
2019-01-30T00:42:04.966Z,93034.90
2019-01-30T00:45:12.950Z,93033.42
2019-01-30T00:48:20.527Z,93032.92
2019-01-30T00:51:28.288Z,93025.72
2019-01-30T00:54:36.589Z,93022.14
2019-01-30T00:57:44.800Z,93013.60
2019-01-30T01:00:52.306Z,93012.37
2019-01-30T01:03:59.733Z,93002.66
2019-01-30T01:07:07.395Z,92998.76
2019-01-30T01:10:15.933Z,93001.02
2019-01-30T01:13:23.318Z,92993.26
2019-01-30T01:16:30.722Z,92989.84
2019-01-30T01:19:38.002Z,92989.03
2019-01-30T01:22:45.666Z,92992.84
2019-01-30T01:25:53.501Z,92985.59
2019-01-30T01:29:01.310Z,92986.97
2019-01-30T01:32:09.312Z,92986.77
2019-01-30T01:35:17.110Z,92982.75
2019-01-30T01:38:24.626Z,92980.48
2019-01-30T01:41:32.120Z,92977.38
2019-01-30T01:44:39.911Z,92976.80
2019-01-30T01:47:48.116Z,92963.63
2019-01-30T01:50:56.006Z,92954.11
2019-01-30T01:54:03.668Z,92957.13
2019-01-30T01:57:11.234Z,92960.23
2019-01-30T02:00:20.336Z,92951.80
2019-01-30T02:03:27.723Z,92945.88
2019-01-30T02:06:35.454Z,92943.09
2019-01-30T02:09:42.967Z,92937.79
2019-01-30T02:12:50.779Z,92937.11
2019-01-30T02:15:58.159Z,92933.71
2019-01-30T02:19:05.555Z,92929.95
2019-01-30T02:22:13.408Z,92927.54
2019-01-30T02:25:20.797Z,92927.02
2019-01-30T02:28:28.302Z,92926.34
2019-01-30T02:31:35.973Z,92913.45
2019-01-30T02:34:43.241Z,92909.66
2019-01-30T02:37:50.716Z,92914.23
2019-01-30T02:40:58.206Z,92899.64
2019-01-30T02:44:05.602Z,92898.88
2019-01-30T02:47:13.459Z,92897.09
2019-01-30T02:50:21.851Z,92888.14
2019-01-30T02:53:29.486Z,92882.64
2019-01-30T02:56:37.027Z,92881.44
2019-01-30T02:59:44.623Z,92874.94
2019-01-30T03:02:52.759Z,92870.92
2019-01-30T03:06:00.137Z,92874.80
2019-01-30T03:09:07.737Z,92873.77
2019-01-30T03:12:15.463Z,92875.13
2019-01-30T03:15:23.157Z,92866.59
2019-01-30T03:18:30.665Z,92867.78
2019-01-30T03:21:38.039Z,92863.38
2019-01-30T03:24:45.318Z,92865.53
2019-01-30T03:27:53.282Z,92859.80
2019-01-30T03:31:15.668Z,92857.84
2019-01-30T03:34:10.148Z,92860.80
2019-01-30T03:37:17.429Z,92859.51
2019-01-30T03:40:25.168Z,92859.88
2019-01-30T03:43:32.430Z,92855.92
2019-01-30T03:46:39.827Z,92843.87
2019-01-30T03:49:47.111Z,92842.83
2019-01-30T03:52:54.388Z,92844.66
2019-01-30T03:56:01.777Z,92850.59
2019-01-30T03:59:09.603Z,92845.17
2019-01-30T04:02:17.214Z,92836.02
2019-01-30T04:05:24.689Z,92844.79
2019-01-30T04:08:31.971Z,92832.89
2019-01-30T04:11:39.148Z,92832.48
2019-01-30T04:14:46.786Z,92829.91
2019-01-30T04:17:54.159Z,92830.73
2019-01-30T04:21:01.775Z,92831.52
2019-01-30T04:24:09.370Z,92827.91
2019-01-30T04:27:16.554Z,92825.92
2019-01-30T04:30:24.399Z,92828.02
2019-01-30T04:33:31.803Z,92825.66
2019-01-30T04:36:39.367Z,92811.45
2019-01-30T04:39:46.635Z,92811.29
2019-01-30T04:42:54.152Z,92811.86
2019-01-30T04:46:01.648Z,92807.17
2019-01-30T04:49:09.274Z,92802.89
2019-01-30T04:52:16.662Z,92804.52
2019-01-30T04:55:24.136Z,92801.24
2019-01-30T04:58:31.308Z,92801.62
2019-01-30T05:01:49.275Z,92799.44
2019-01-30T05:04:48.355Z,92801.50
2019-01-30T05:07:56.159Z,92798.45
2019-01-30T05:11:04.056Z,92800.06
2019-01-30T05:14:11.325Z,92788.07
2019-01-30T05:17:18.825Z,92791.45
2019-01-30T05:20:26.164Z,92791.74
2019-01-30T05:23:33.553Z,92787.62
2019-01-30T05:26:40.729Z,92783.45
2019-01-30T05:29:47.999Z,92796.34
2019-01-30T05:32:58.464Z,92793.56
2019-01-30T05:36:06.215Z,92793.58
2019-01-30T05:39:13.774Z,92791.77
2019-01-30T05:42:21.301Z,92794.59
2019-01-30T05:45:28.766Z,92795.80
2019-01-30T05:48:36.267Z,92793.14
2019-01-30T05:51:43.670Z,92790.95
2019-01-30T05:54:51.785Z,92790.09
2019-01-30T05:57:59.351Z,92784.27
2019-01-30T06:01:06.873Z,92786.92
2019-01-30T06:04:14.350Z,92785.02
2019-01-30T06:07:21.982Z,92786.39
2019-01-30T06:10:29.464Z,92777.88
2019-01-30T06:13:37.071Z,92778.18
2019-01-30T06:16:44.382Z,92779.62
2019-01-30T06:19:51.942Z,92781.96
2019-01-30T06:23:01.609Z,92787.92
2019-01-30T06:26:08.658Z,92780.84
2019-01-30T06:29:16.269Z,92776.77
2019-01-30T06:32:23.766Z,92778.96
2019-01-30T06:35:31.250Z,92778.41
2019-01-30T06:38:38.962Z,92779.25
2019-01-30T06:41:46.373Z,92779.99
2019-01-30T06:44:53.564Z,92777.50
2019-01-30T06:48:01.063Z,92771.54
2019-01-30T06:51:08.535Z,92776.58
2019-01-30T06:54:15.812Z,92775.16
2019-01-30T06:57:23.208Z,92780.41
2019-01-30T07:00:30.701Z,92778.20
2019-01-30T07:03:37.966Z,92774.42
2019-01-30T07:06:45.351Z,92784.70
2019-01-30T07:09:53.101Z,92783.52
2019-01-30T07:13:00.593Z,92787.93
2019-01-30T07:16:08.081Z,92782.61
2019-01-30T07:19:15.492Z,92786.48
2019-01-30T07:22:22.971Z,92794.06
2019-01-30T07:25:30.701Z,92793.03
2019-01-30T07:28:37.982Z,92795.88
2019-01-30T07:31:45.485Z,92795.72
2019-01-30T07:34:53.172Z,92803.30
2019-01-30T07:38:00.789Z,92796.91
2019-01-30T07:41:08.068Z,92795.16
2019-01-30T07:44:15.737Z,92790.28
2019-01-30T07:47:23.012Z,92788.45
2019-01-30T07:50:30.859Z,92793.06
2019-01-30T07:53:38.560Z,92797.54
2019-01-30T07:56:45.952Z,92799.08
2019-01-30T07:59:53.141Z,92797.66
2019-01-30T08:03:01.166Z,92814.64
2019-01-30T08:06:08.662Z,92815.38
2019-01-30T08:09:16.058Z,92818.31
2019-01-30T08:12:23.855Z,92831.78
2019-01-30T08:15:31.758Z,92828.81
2019-01-30T08:18:39.572Z,92828.79
2019-01-30T08:21:47.105Z,92834.80
2019-01-30T08:24:54.662Z,92835.03
2019-01-30T08:28:02.832Z,92844.02
2019-01-30T08:31:11.140Z,92846.48
2019-01-30T08:34:19.182Z,92849.85
2019-01-30T08:37:26.567Z,92857.67
2019-01-30T08:40:34.288Z,92860.41
2019-01-30T08:43:41.948Z,92856.06
2019-01-30T08:46:49.476Z,92859.63
2019-01-30T08:49:56.999Z,92862.00
2019-01-30T08:53:04.474Z,92856.95
2019-01-30T08:56:11.820Z,92864.58
2019-01-30T08:59:19.062Z,92865.38
2019-01-30T09:02:27.017Z,92867.52
2019-01-30T09:05:34.316Z,92865.19
2019-01-30T09:08:41.972Z,92870.89
2019-01-30T09:11:50.056Z,92879.00
2019-01-30T09:14:57.713Z,92889.91
2019-01-30T09:18:06.087Z,92899.71
2019-01-30T09:21:13.578Z,92908.62
2019-01-30T09:24:20.766Z,92918.17
2019-01-30T09:27:28.566Z,92930.23
2019-01-30T09:30:37.927Z,92934.19
2019-01-30T09:33:45.357Z,92937.98
2019-01-30T09:36:53.585Z,92943.95
2019-01-30T09:40:01.220Z,92942.51
2019-01-30T09:43:08.508Z,92956.88
2019-01-30T09:46:16.034Z,92949.98
2019-01-30T09:49:23.360Z,92957.17
2019-01-30T09:52:30.554Z,92952.64
2019-01-30T09:55:38.063Z,92965.44
2019-01-30T09:58:45.323Z,92986.98
2019-01-30T10:01:53.170Z,93003.63
2019-01-30T10:05:00.393Z,93011.87
2019-01-30T10:08:08.505Z,93010.50
2019-01-30T10:11:15.797Z,93002.44
2019-01-30T10:14:23.874Z,93018.98
2019-01-30T10:17:31.264Z,93042.14
2019-01-30T10:20:39.895Z,93041.89
2019-01-30T10:23:47.386Z,93041.76
2019-01-30T10:26:54.697Z,93042.28
2019-01-30T10:30:02.402Z,93041.73
2019-01-30T10:33:09.796Z,93043.08
2019-01-30T10:36:17.473Z,93042.23
2019-01-30T10:39:24.874Z,93044.44
2019-01-30T10:42:32.674Z,93044.84
2019-01-30T10:45:40.468Z,93038.22
2019-01-30T10:48:47.973Z,93038.60
2019-01-30T10:51:55.737Z,93045.41
2019-01-30T10:55:04.919Z,93043.05
2019-01-30T10:58:15.685Z,93045.41
2019-01-30T11:01:23.214Z,93044.28
2019-01-30T11:04:30.840Z,93050.59
2019-01-30T11:07:38.315Z,93052.41
2019-01-30T11:10:45.917Z,93050.36
2019-01-30T11:13:53.521Z,93057.59
2019-01-30T11:17:01.066Z,93056.16
2019-01-30T11:20:10.861Z,93056.39
2019-01-30T11:23:18.392Z,93046.16
2019-01-30T11:26:25.888Z,93051.53
2019-01-30T11:29:33.617Z,93050.91
2019-01-30T11:32:41.212Z,93050.91
2019-01-30T11:35:48.684Z,93053.23
2019-01-30T11:38:56.066Z,93048.13
2019-01-30T11:42:03.756Z,93051.47
2019-01-30T11:45:18.619Z,93048.53
2019-01-30T11:48:26.510Z,93057.52
2019-01-30T11:51:34.681Z,93059.14
2019-01-30T11:54:42.426Z,93064.30
2019-01-30T11:57:49.788Z,93054.09
2019-01-30T12:00:59.624Z,93058.55
2019-01-30T12:04:17.457Z,93051.36
2019-01-30T12:07:16.384Z,93055.58
2019-01-30T12:10:24.264Z,93053.17
2019-01-30T12:13:31.677Z,93053.84
2019-01-30T12:16:39.505Z,93052.79
2019-01-30T12:19:47.160Z,93051.20
2019-01-30T12:22:55.004Z,93041.45
2019-01-30T12:26:02.728Z,93050.53
2019-01-30T12:29:10.369Z,93047.94
2019-01-30T12:32:18.006Z,93045.09
2019-01-30T12:35:26.180Z,93048.81
2019-01-30T12:38:33.984Z,93048.39
2019-01-30T12:41:41.684Z,93044.90
2019-01-30T12:44:49.000Z,93049.45
2019-01-30T12:47:56.597Z,93058.60
2019-01-30T12:51:04.056Z,93056.47
2019-01-30T12:54:11.855Z,93045.95
2019-01-30T12:57:19.703Z,93052.59
2019-01-30T13:00:36.498Z,93055.61
2019-01-30T13:03:44.012Z,93052.59
2019-01-30T13:06:52.099Z,93061.78
2019-01-30T13:09:59.495Z,93062.78
2019-01-30T13:13:06.966Z,93063.05
2019-01-30T13:16:14.543Z,93058.84
2019-01-30T13:19:22.356Z,93056.14
2019-01-30T13:22:29.628Z,93060.31
2019-01-30T13:25:37.380Z,93061.23
2019-01-30T13:28:45.490Z,93063.28
2019-01-30T13:31:53.319Z,93067.41
2019-01-30T13:35:00.606Z,93071.42
2019-01-30T13:38:08.182Z,93068.89
2019-01-30T13:41:15.680Z,93076.09
2019-01-30T13:44:23.280Z,93075.69
2019-01-30T13:47:32.777Z,93074.13
2019-01-30T13:50:40.585Z,93074.28
2019-01-30T13:53:48.417Z,93083.27
2019-01-30T13:56:55.990Z,93084.69
2019-01-30T14:00:08.211Z,93085.23
2019-01-30T14:03:16.112Z,93092.28
2019-01-30T14:06:23.544Z,93087.76
2019-01-30T14:09:31.237Z,93094.95
2019-01-30T14:12:38.656Z,93098.89
2019-01-30T14:15:46.472Z,93097.65
2019-01-30T14:18:53.790Z,93097.57
2019-01-30T14:22:01.534Z,93101.66
2019-01-30T14:25:10.732Z,93109.13
2019-01-30T14:28:18.255Z,93112.67
2019-01-30T14:31:25.688Z,93115.80
2019-01-30T14:34:32.982Z,93124.45
2019-01-30T14:37:40.527Z,93111.45
2019-01-30T14:40:48.098Z,93122.09
2019-01-30T14:43:55.622Z,93125.28
2019-01-30T14:47:03.429Z,93129.11
2019-01-30T14:50:15.531Z,93127.59
2019-01-30T14:53:24.477Z,93132.52
2019-01-30T14:56:32.113Z,93144.23
2019-01-30T14:59:39.675Z,93147.30
2019-01-30T15:02:47.677Z,93152.45
2019-01-30T15:05:54.898Z,93151.80
2019-01-30T15:09:06.781Z,93162.32
2019-01-30T15:12:14.587Z,93158.80
2019-01-30T15:15:24.946Z,93163.06
2019-01-30T15:18:32.350Z,93167.64
2019-01-30T15:21:39.908Z,93166.95
2019-01-30T15:24:47.461Z,93171.23
2019-01-30T15:27:55.889Z,93168.02
2019-01-30T15:31:03.564Z,93164.00
2019-01-30T15:34:11.817Z,93164.22
2019-01-30T15:37:19.502Z,93168.72
2019-01-30T15:40:27.925Z,93174.73
2019-01-30T15:43:35.585Z,93177.89
2019-01-30T15:46:43.346Z,93183.12
2019-01-30T15:49:51.293Z,93178.14
2019-01-30T15:53:00.545Z,93184.05
2019-01-30T15:56:08.208Z,93184.94
2019-01-30T15:59:16.126Z,93188.09
2019-01-30T16:02:24.347Z,93198.62
2019-01-30T16:05:44.191Z,93196.63
2019-01-30T16:08:43.561Z,93197.18
2019-01-30T16:11:51.192Z,93196.86
2019-01-30T16:14:59.341Z,93203.63
2019-01-30T16:18:08.156Z,93209.30
2019-01-30T16:21:15.842Z,93212.57
2019-01-30T16:24:23.855Z,93222.30
2019-01-30T16:27:32.044Z,93220.42
2019-01-30T16:30:42.221Z,93220.00
2019-01-30T16:33:49.411Z,93221.30
2019-01-30T16:36:57.652Z,93228.49
2019-01-30T16:40:07.237Z,93230.16
2019-01-30T16:43:14.888Z,93229.23
2019-01-30T16:46:22.835Z,93231.42
2019-01-30T16:49:31.373Z,93231.96
2019-01-30T16:52:39.976Z,93239.69
2019-01-30T16:55:47.650Z,93250.43
2019-01-30T16:58:55.417Z,93246.07
2019-01-30T17:02:03.306Z,93254.26
2019-01-30T17:05:14.345Z,93254.95
2019-01-30T17:08:22.106Z,93259.16
2019-01-30T17:11:30.092Z,93258.90
2019-01-30T17:14:38.086Z,93265.59
2019-01-30T17:17:46.098Z,93266.24
2019-01-30T17:21:06.418Z,93264.34
2019-01-30T17:24:14.531Z,93269.22
2019-01-30T17:27:22.970Z,93266.45
2019-01-30T17:31:07.980Z,93267.30
2019-01-30T17:34:16.129Z,93273.34
2019-01-30T17:37:23.775Z,93278.91
2019-01-30T17:40:32.197Z,93278.80
2019-01-30T17:43:40.516Z,93282.64
2019-01-30T17:46:48.079Z,93283.02
2019-01-30T17:49:55.683Z,93287.34
2019-01-30T17:53:04.115Z,93290.34
2019-01-30T17:56:12.665Z,93295.44
2019-01-30T17:59:20.264Z,93304.28
2019-01-30T18:02:28.309Z,93311.05
2019-01-30T18:05:35.873Z,93313.59
2019-01-30T18:08:44.707Z,93316.20
2019-01-30T18:11:52.998Z,93321.56
2019-01-30T18:15:00.888Z,93321.03
2019-01-30T18:18:08.832Z,93319.95
2019-01-30T18:21:17.423Z,93331.01
2019-01-30T18:24:28.182Z,93342.23
2019-01-30T18:27:38.749Z,93344.30
2019-01-30T18:30:48.853Z,93342.33
2019-01-30T18:34:00.341Z,93350.30
2019-01-30T18:37:11.318Z,93346.39
2019-01-30T18:40:23.782Z,93346.37
2019-01-30T18:43:34.194Z,93349.58
2019-01-30T18:46:43.609Z,93352.90
2019-01-30T18:49:52.964Z,93344.97
2019-01-30T18:53:02.223Z,93356.05
2019-01-30T18:56:12.805Z,93355.08
2019-01-30T18:59:21.852Z,93353.72
2019-01-30T19:02:31.449Z,93356.19
2019-01-30T19:05:40.573Z,93360.09
2019-01-30T19:08:51.058Z,93356.84
2019-01-30T19:12:02.047Z,93364.11
2019-01-30T19:15:16.747Z,93361.11
2019-01-30T19:18:26.966Z,93364.64
2019-01-30T19:21:37.798Z,93360.93
2019-01-30T19:24:48.957Z,93370.52
2019-01-30T19:28:01.317Z,93372.73
2019-01-30T19:31:12.629Z,93376.86
2019-01-30T19:34:23.870Z,93378.17
2019-01-30T19:37:35.154Z,93383.80
2019-01-30T19:40:45.874Z,93385.59
2019-01-30T19:43:57.665Z,93385.80
2019-01-30T19:47:08.519Z,93385.02
2019-01-30T19:50:23.750Z,93384.44
2019-01-30T19:53:34.687Z,93380.23
2019-01-30T19:56:45.298Z,93378.30
2019-01-30T19:59:56.537Z,93383.11
2019-01-30T20:03:10.601Z,93376.00
2019-01-30T20:06:21.916Z,93378.84
2019-01-30T20:09:33.387Z,93379.73
2019-01-30T20:12:43.712Z,93391.86
2019-01-30T20:15:56.201Z,93386.48
2019-01-30T20:19:06.729Z,93390.92
2019-01-30T20:22:17.307Z,93385.66
2019-01-30T20:25:31.419Z,93388.46
2019-01-30T20:28:43.009Z,93389.39
2019-01-30T20:31:55.214Z,93393.34
2019-01-30T20:35:07.297Z,93398.06
2019-01-30T20:38:18.606Z,93399.32
2019-01-30T20:41:29.793Z,93399.85
2019-01-30T20:44:40.221Z,93406.27
2019-01-30T20:47:49.300Z,93406.25
2019-01-30T20:50:59.830Z,93405.77
2019-01-30T20:54:09.645Z,93408.63
2019-01-30T20:57:21.447Z,93409.52
2019-01-30T21:00:36.532Z,93410.89
2019-01-30T21:03:45.488Z,93400.70
2019-01-30T21:06:55.961Z,93404.70
2019-01-30T21:10:08.719Z,93411.06
2019-01-30T21:13:19.161Z,93409.62
2019-01-30T21:16:31.070Z,93411.23
2019-01-30T21:19:41.864Z,93405.21
2019-01-30T21:22:53.088Z,93411.07
2019-01-30T21:26:03.587Z,93408.96
2019-01-30T21:29:15.664Z,93408.10
2019-01-30T21:32:25.201Z,93413.30
2019-01-30T21:35:35.639Z,93409.03
2019-01-30T21:38:46.611Z,93408.69
2019-01-30T21:41:56.150Z,93416.36
2019-01-30T21:45:07.148Z,93414.08
2019-01-30T21:48:15.594Z,93410.80
2019-01-30T21:51:23.007Z,93417.91
2019-01-30T21:54:31.862Z,93422.97
2019-01-30T21:57:39.808Z,93414.35
2019-01-30T22:00:47.266Z,93420.95
2019-01-30T22:03:54.923Z,93419.02
2019-01-30T22:07:03.336Z,93415.48
2019-01-30T22:10:15.218Z,93419.34
2019-01-30T22:13:23.139Z,93420.52
2019-01-30T22:16:31.009Z,93428.69
2019-01-30T22:19:38.534Z,93428.53
2019-01-30T22:22:46.334Z,93428.78
2019-01-30T22:25:53.751Z,93429.03
2019-01-30T22:29:02.722Z,93425.71
2019-01-30T22:32:10.243Z,93434.80
2019-01-30T22:35:17.734Z,93434.03
2019-01-30T22:38:24.991Z,93439.56
2019-01-30T22:41:32.202Z,93435.20
2019-01-30T22:44:39.984Z,93440.39
2019-01-30T22:47:47.755Z,93443.34
2019-01-30T22:50:55.268Z,93434.35
2019-01-30T22:54:03.630Z,93441.02
2019-01-30T22:57:11.473Z,93441.71
2019-01-30T23:00:57.563Z,93443.38
2019-01-30T23:05:09.890Z,93435.73
2019-01-30T23:08:37.335Z,93429.08
2019-01-30T23:13:02.643Z,93429.95
2019-01-30T23:17:08.103Z,93431.62
2019-01-30T23:20:34.810Z,93430.40
2019-01-30T23:24:25.639Z,93423.96
2019-01-30T23:27:57.744Z,93422.22
2019-01-30T23:32:27.089Z,93415.69
2019-01-30T23:36:39.169Z,93411.72
2019-01-30T23:41:03.220Z,93413.09
2019-01-30T23:44:39.425Z,93408.17
2019-01-30T23:48:39.023Z,93404.67
2019-01-30T23:52:32.916Z,93399.75
2019-01-30T23:56:30.294Z,93399.97
2019-01-30T23:59:51.967Z,93396.25
